Asheville Regional Airport Airport (AVL)

 

Airport Diagram
Current Weather/Forecast (MVFR Conditions)
METAR KAVL 131154Z 00000KT 7SM BKN021 BKN080 17/16 A3020 RMK AO2 SLP204 T01670161 10189 20161 53009
TAF KAVL 131130Z 1312/1412 VRB02KT P6SM SCT011 FM131400 12005KT P6SM FEW050 FM131800 14008KT P6SM SCT040 FM140900 VRB02KT 3SM BR SCT070

All Charts
General
Chart Name Download
AIRPORT DIAGRAM
TAKEOFF MINIMUMS
ALTERNATE MINIMUMS

Departures
Chart Name Download
ASHEVILLE SEVEN

Approaches
Chart Name Download
ILS OR LOC RWY 17
ILS OR LOC RWY 35
RNAV (GPS) RWY 17
RNAV (GPS) RWY 35


Inbound Traffic (Arrivals)

No inbound traffic.


Outbound Traffic (Departures)

No outbound traffic.